<?xml version="1.0" encoding="UTF-8" standalone="no" ?>
<gpx xmlns="http://www.topografix.com/GPX/1/1" xmlns:xsi="http://www.w3.org/2001/XMLSchema-instance" xsi:schemaLocation="http://www.topografix.com/GPX/1/1 http://www.topografix.com/GPX/1/1/gpx.xsd" version="1.1" creator="VisuGPX - https://www.visugpx.com">
  <metadata>
    <name>Lussignan-Petit</name>
    <desc><![CDATA[Circuit 5 du canton de Prayssass]]></desc>
  </metadata>
  <trk>
    <name><![CDATA[25-FEV-12 10:26:28]]></name>
    <trkseg>
      <trkpt lat="44.27096" lon="0.52509">
        <ele>166.45</ele>
        <time>2012-02-25T08:21:40Z</time>
      </trkpt>
      <trkpt lat="44.27096" lon="0.5251">
        <ele>167.41</ele>
        <time>2012-02-25T08:21:49Z</time>
      </trkpt>
      <trkpt lat="44.27097" lon="0.52509">
        <ele>167.89</ele>
        <time>2012-02-25T08:21:54Z</time>
      </trkpt>
      <trkpt lat="44.27099" lon="0.52503">
        <ele>167.41</ele>
        <time>2012-02-25T08:21:58Z</time>
      </trkpt>
      <trkpt lat="44.27094" lon="0.52508">
        <ele>166.93</ele>
        <time>2012-02-25T08:22:06Z</time>
      </trkpt>
      <trkpt lat="44.27084" lon="0.52504">
        <ele>166.45</ele>
        <time>2012-02-25T08:22:14Z</time>
      </trkpt>
      <trkpt lat="44.27087" lon="0.52492">
        <ele>166.93</ele>
        <time>2012-02-25T08:22:18Z</time>
      </trkpt>
      <trkpt lat="44.27118" lon="0.52428">
        <ele>167.41</ele>
        <time>2012-02-25T08:22:37Z</time>
      </trkpt>
      <trkpt lat="44.27155" lon="0.52383">
        <ele>165.48</ele>
        <time>2012-02-25T08:22:51Z</time>
      </trkpt>
      <trkpt lat="44.27163" lon="0.52374">
        <ele>165.48</ele>
        <time>2012-02-25T08:22:54Z</time>
      </trkpt>
      <trkpt lat="44.2717" lon="0.52374">
        <ele>165</ele>
        <time>2012-02-25T08:22:56Z</time>
      </trkpt>
      <trkpt lat="44.27174" lon="0.52376">
        <ele>164.04</ele>
        <time>2012-02-25T08:22:57Z</time>
      </trkpt>
      <trkpt lat="44.27178" lon="0.52379">
        <ele>164.04</ele>
        <time>2012-02-25T08:22:58Z</time>
      </trkpt>
      <trkpt lat="44.27187" lon="0.52387">
        <ele>163.08</ele>
        <time>2012-02-25T08:23:00Z</time>
      </trkpt>
      <trkpt lat="44.2719" lon="0.52391">
        <ele>163.08</ele>
        <time>2012-02-25T08:23:01Z</time>
      </trkpt>
      <trkpt lat="44.27193" lon="0.52395">
        <ele>162.6</ele>
        <time>2012-02-25T08:23:02Z</time>
      </trkpt>
      <trkpt lat="44.27196" lon="0.52398">
        <ele>162.12</ele>
        <time>2012-02-25T08:23:03Z</time>
      </trkpt>
      <trkpt lat="44.27199" lon="0.52401">
        <ele>162.12</ele>
        <time>2012-02-25T08:23:04Z</time>
      </trkpt>
      <trkpt lat="44.27201" lon="0.52404">
        <ele>162.12</ele>
        <time>2012-02-25T08:23:05Z</time>
      </trkpt>
      <trkpt lat="44.27203" lon="0.52406">
        <ele>162.12</ele>
        <time>2012-02-25T08:23:06Z</time>
      </trkpt>
      <trkpt lat="44.27205" lon="0.52407">
        <ele>162.12</ele>
        <time>2012-02-25T08:23:07Z</time>
      </trkpt>
      <trkpt lat="44.27226" lon="0.52434">
        <ele>161.16</ele>
        <time>2012-02-25T08:23:17Z</time>
      </trkpt>
      <trkpt lat="44.27252" lon="0.52468">
        <ele>162.6</ele>
        <time>2012-02-25T08:23:30Z</time>
      </trkpt>
      <trkpt lat="44.27271" lon="0.52498">
        <ele>164.52</ele>
        <time>2012-02-25T08:23:44Z</time>
      </trkpt>
      <trkpt lat="44.27282" lon="0.52516">
        <ele>165.96</ele>
        <time>2012-02-25T08:23:54Z</time>
      </trkpt>
      <trkpt lat="44.27283" lon="0.52517">
        <ele>165.96</ele>
        <time>2012-02-25T08:23:55Z</time>
      </trkpt>
      <trkpt lat="44.27284" lon="0.52518">
        <ele>166.45</ele>
        <time>2012-02-25T08:23:56Z</time>
      </trkpt>
      <trkpt lat="44.27285" lon="0.5252">
        <ele>166.45</ele>
        <time>2012-02-25T08:23:57Z</time>
      </trkpt>
      <trkpt lat="44.27286" lon="0.52522">
        <ele>166.93</ele>
        <time>2012-02-25T08:23:58Z</time>
      </trkpt>
      <trkpt lat="44.27288" lon="0.52523">
        <ele>165.96</ele>
        <time>2012-02-25T08:23:59Z</time>
      </trkpt>
      <trkpt lat="44.27304" lon="0.52545">
        <ele>167.41</ele>
        <time>2012-02-25T08:24:13Z</time>
      </trkpt>
      <trkpt lat="44.27321" lon="0.5257">
        <ele>168.37</ele>
        <time>2012-02-25T08:24:28Z</time>
      </trkpt>
      <trkpt lat="44.27338" lon="0.52592">
        <ele>169.33</ele>
        <time>2012-02-25T08:24:41Z</time>
      </trkpt>
      <trkpt lat="44.27355" lon="0.52616">
        <ele>169.81</ele>
        <time>2012-02-25T08:24:55Z</time>
      </trkpt>
      <trkpt lat="44.27373" lon="0.52643">
        <ele>169.81</ele>
        <time>2012-02-25T08:25:08Z</time>
      </trkpt>
      <trkpt lat="44.27375" lon="0.52645">
        <ele>170.29</ele>
        <time>2012-02-25T08:25:09Z</time>
      </trkpt>
      <trkpt lat="44.27377" lon="0.52645">
        <ele>169.81</ele>
        <time>2012-02-25T08:25:10Z</time>
      </trkpt>
      <trkpt lat="44.27379" lon="0.52645">
        <ele>169.81</ele>
        <time>2012-02-25T08:25:11Z</time>
      </trkpt>
      <trkpt lat="44.27382" lon="0.52643">
        <ele>169.33</ele>
        <time>2012-02-25T08:25:12Z</time>
      </trkpt>
      <trkpt lat="44.27384" lon="0.52641">
        <ele>169.33</ele>
        <time>2012-02-25T08:25:13Z</time>
      </trkpt>
      <trkpt lat="44.27435" lon="0.52595">
        <ele>166.93</ele>
        <time>2012-02-25T08:25:28Z</time>
      </trkpt>
      <trkpt lat="44.27508" lon="0.52533">
        <ele>165.48</ele>
        <time>2012-02-25T08:25:48Z</time>
      </trkpt>
      <trkpt lat="44.27534" lon="0.52508">
        <ele>165.96</ele>
        <time>2012-02-25T08:25:58Z</time>
      </trkpt>
      <trkpt lat="44.27535" lon="0.52508">
        <ele>165.96</ele>
        <time>2012-02-25T08:25:59Z</time>
      </trkpt>
      <trkpt lat="44.27538" lon="0.52506">
        <ele>165.96</ele>
        <time>2012-02-25T08:26:06Z</time>
      </trkpt>
      <trkpt lat="44.27538" lon="0.52502">
        <ele>165.96</ele>
        <time>2012-02-25T08:26:08Z</time>
      </trkpt>
      <trkpt lat="44.27538" lon="0.525">
        <ele>165.96</ele>
        <time>2012-02-25T08:26:09Z</time>
      </trkpt>
      <trkpt lat="44.27538" lon="0.52497">
        <ele>165.96</ele>
        <time>2012-02-25T08:26:10Z</time>
      </trkpt>
      <trkpt lat="44.2754" lon="0.52494">
        <ele>165.96</ele>
        <time>2012-02-25T08:26:11Z</time>
      </trkpt>
      <trkpt lat="44.27542" lon="0.52492">
        <ele>165.48</ele>
        <time>2012-02-25T08:26:12Z</time>
      </trkpt>
      <trkpt lat="44.27544" lon="0.52489">
        <ele>165.48</ele>
        <time>2012-02-25T08:26:13Z</time>
      </trkpt>
      <trkpt lat="44.27546" lon="0.52487">
        <ele>165.48</ele>
        <time>2012-02-25T08:26:14Z</time>
      </trkpt>
      <trkpt lat="44.27548" lon="0.52484">
        <ele>165.96</ele>
        <time>2012-02-25T08:26:15Z</time>
      </trkpt>
      <trkpt lat="44.27551" lon="0.52477">
        <ele>165.96</ele>
        <time>2012-02-25T08:26:18Z</time>
      </trkpt>
      <trkpt lat="44.27552" lon="0.52474">
        <ele>165</ele>
        <time>2012-02-25T08:26:19Z</time>
      </trkpt>
      <trkpt lat="44.27561" lon="0.52432">
        <ele>165</ele>
        <time>2012-02-25T08:26:29Z</time>
      </trkpt>
      <trkpt lat="44.27564" lon="0.52376">
        <ele>165</ele>
        <time>2012-02-25T08:26:40Z</time>
      </trkpt>
      <trkpt lat="44.27575" lon="0.52304">
        <ele>166.45</ele>
        <time>2012-02-25T08:26:55Z</time>
      </trkpt>
      <trkpt lat="44.27605" lon="0.52271">
        <ele>167.41</ele>
        <time>2012-02-25T08:27:07Z</time>
      </trkpt>
      <trkpt lat="44.27631" lon="0.52238">
        <ele>166.93</ele>
        <time>2012-02-25T08:27:18Z</time>
      </trkpt>
      <trkpt lat="44.27631" lon="0.52235">
        <ele>166.93</ele>
        <time>2012-02-25T08:27:19Z</time>
      </trkpt>
      <trkpt lat="44.27631" lon="0.52231">
        <ele>166.93</ele>
        <time>2012-02-25T08:27:20Z</time>
      </trkpt>
      <trkpt lat="44.2763" lon="0.52226">
        <ele>166.45</ele>
        <time>2012-02-25T08:27:21Z</time>
      </trkpt>
      <trkpt lat="44.2763" lon="0.52222">
        <ele>167.41</ele>
        <time>2012-02-25T08:27:22Z</time>
      </trkpt>
      <trkpt lat="44.27622" lon="0.52147">
        <ele>167.41</ele>
        <time>2012-02-25T08:27:36Z</time>
      </trkpt>
      <trkpt lat="44.27608" lon="0.52098">
        <ele>168.37</ele>
        <time>2012-02-25T08:27:47Z</time>
      </trkpt>
      <trkpt lat="44.27595" lon="0.52089">
        <ele>167.89</ele>
        <time>2012-02-25T08:27:51Z</time>
      </trkpt>
      <trkpt lat="44.27593" lon="0.52084">
        <ele>167.41</ele>
        <time>2012-02-25T08:27:52Z</time>
      </trkpt>
      <trkpt lat="44.27579" lon="0.52046">
        <ele>165.48</ele>
        <time>2012-02-25T08:27:58Z</time>
      </trkpt>
      <trkpt lat="44.27572" lon="0.52029">
        <ele>165</ele>
        <time>2012-02-25T08:28:01Z</time>
      </trkpt>
      <trkpt lat="44.27565" lon="0.52014">
        <ele>164.52</ele>
        <time>2012-02-25T08:28:05Z</time>
      </trkpt>
      <trkpt lat="44.27563" lon="0.52009">
        <ele>163.56</ele>
        <time>2012-02-25T08:28:06Z</time>
      </trkpt>
      <trkpt lat="44.2756" lon="0.52004">
        <ele>163.08</ele>
        <time>2012-02-25T08:28:07Z</time>
      </trkpt>
      <trkpt lat="44.27534" lon="0.51963">
        <ele>159.72</ele>
        <time>2012-02-25T08:28:14Z</time>
      </trkpt>
      <trkpt lat="44.27505" lon="0.51926">
        <ele>158.75</ele>
        <time>2012-02-25T08:28:21Z</time>
      </trkpt>
      <trkpt lat="44.27488" lon="0.51907">
        <ele>158.75</ele>
        <time>2012-02-25T08:28:27Z</time>
      </trkpt>
      <trkpt lat="44.27488" lon="0.51905">
        <ele>158.27</ele>
        <time>2012-02-25T08:28:28Z</time>
      </trkpt>
      <trkpt lat="44.27489" lon="0.51902">
        <ele>158.27</ele>
        <time>2012-02-25T08:28:29Z</time>
      </trkpt>
      <trkpt lat="44.27493" lon="0.51889">
        <ele>156.83</ele>
        <time>2012-02-25T08:28:32Z</time>
      </trkpt>
      <trkpt lat="44.27496" lon="0.51884">
        <ele>156.35</ele>
        <time>2012-02-25T08:28:33Z</time>
      </trkpt>
      <trkpt lat="44.27503" lon="0.51869">
        <ele>154.43</ele>
        <time>2012-02-25T08:28:36Z</time>
      </trkpt>
      <trkpt lat="44.27505" lon="0.51863">
        <ele>153.95</ele>
        <time>2012-02-25T08:28:37Z</time>
      </trkpt>
      <trkpt lat="44.27508" lon="0.51857">
        <ele>152.99</ele>
        <time>2012-02-25T08:28:38Z</time>
      </trkpt>
      <trkpt lat="44.27513" lon="0.51844">
        <ele>151.54</ele>
        <time>2012-02-25T08:28:40Z</time>
      </trkpt>
      <trkpt lat="44.27516" lon="0.51837">
        <ele>151.06</ele>
        <time>2012-02-25T08:28:41Z</time>
      </trkpt>
      <trkpt lat="44.27527" lon="0.51813">
        <ele>147.7</ele>
        <time>2012-02-25T08:28:45Z</time>
      </trkpt>
      <trkpt lat="44.27539" lon="0.51787">
        <ele>144.34</ele>
        <time>2012-02-25T08:28:49Z</time>
      </trkpt>
      <trkpt lat="44.27546" lon="0.51765">
        <ele>143.37</ele>
        <time>2012-02-25T08:28:58Z</time>
      </trkpt>
      <trkpt lat="44.27547" lon="0.51757">
        <ele>142.41</ele>
        <time>2012-02-25T08:29:10Z</time>
      </trkpt>
      <trkpt lat="44.2755" lon="0.5175">
        <ele>141.93</ele>
        <time>2012-02-25T08:29:22Z</time>
      </trkpt>
      <trkpt lat="44.27554" lon="0.51737">
        <ele>140.49</ele>
        <time>2012-02-25T08:29:32Z</time>
      </trkpt>
      <trkpt lat="44.27562" lon="0.51716">
        <ele>139.05</ele>
        <time>2012-02-25T08:29:43Z</time>
      </trkpt>
      <trkpt lat="44.27568" lon="0.51698">
        <ele>137.13</ele>
        <time>2012-02-25T08:29:52Z</time>
      </trkpt>
      <trkpt lat="44.27568" lon="0.51695">
        <ele>137.13</ele>
        <time>2012-02-25T08:29:53Z</time>
      </trkpt>
      <trkpt lat="44.27577" lon="0.51666">
        <ele>135.2</ele>
        <time>2012-02-25T08:30:04Z</time>
      </trkpt>
      <trkpt lat="44.27591" lon="0.51624">
        <ele>132.8</ele>
        <time>2012-02-25T08:30:12Z</time>
      </trkpt>
      <trkpt lat="44.276" lon="0.51599">
        <ele>130.88</ele>
        <time>2012-02-25T08:30:17Z</time>
      </trkpt>
      <trkpt lat="44.27609" lon="0.51575">
        <ele>127.99</ele>
        <time>2012-02-25T08:30:24Z</time>
      </trkpt>
      <trkpt lat="44.27611" lon="0.51572">
        <ele>127.51</ele>
        <time>2012-02-25T08:30:25Z</time>
      </trkpt>
      <trkpt lat="44.27613" lon="0.51571">
        <ele>127.51</ele>
        <time>2012-02-25T08:30:26Z</time>
      </trkpt>
      <trkpt lat="44.27628" lon="0.51567">
        <ele>123.67</ele>
        <time>2012-02-25T08:30:30Z</time>
      </trkpt>
      <trkpt lat="44.27632" lon="0.51564">
        <ele>122.71</ele>
        <time>2012-02-25T08:30:31Z</time>
      </trkpt>
      <trkpt lat="44.27637" lon="0.51561">
        <ele>121.74</ele>
        <time>2012-02-25T08:30:32Z</time>
      </trkpt>
      <trkpt lat="44.2764" lon="0.51557">
        <ele>120.78</ele>
        <time>2012-02-25T08:30:33Z</time>
      </trkpt>
      <trkpt lat="44.27643" lon="0.51552">
        <ele>120.3</ele>
        <time>2012-02-25T08:30:34Z</time>
      </trkpt>
      <trkpt lat="44.27646" lon="0.51546">
        <ele>119.82</ele>
        <time>2012-02-25T08:30:35Z</time>
      </trkpt>
      <trkpt lat="44.27648" lon="0.51539">
        <ele>118.86</ele>
        <time>2012-02-25T08:30:36Z</time>
      </trkpt>
      <trkpt lat="44.27651" lon="0.51532">
        <ele>117.9</ele>
        <time>2012-02-25T08:30:37Z</time>
      </trkpt>
      <trkpt lat="44.27653" lon="0.51526">
        <ele>117.42</ele>
        <time>2012-02-25T08:30:38Z</time>
      </trkpt>
      <trkpt lat="44.27657" lon="0.5152">
        <ele>115.98</ele>
        <time>2012-02-25T08:30:39Z</time>
      </trkpt>
      <trkpt lat="44.2766" lon="0.51514">
        <ele>115.01</ele>
        <time>2012-02-25T08:30:40Z</time>
      </trkpt>
      <trkpt lat="44.27663" lon="0.51507">
        <ele>114.53</ele>
        <time>2012-02-25T08:30:41Z</time>
      </trkpt>
      <trkpt lat="44.27666" lon="0.51501">
        <ele>113.57</ele>
        <time>2012-02-25T08:30:42Z</time>
      </trkpt>
      <trkpt lat="44.27673" lon="0.51488">
        <ele>112.13</ele>
        <time>2012-02-25T08:30:44Z</time>
      </trkpt>
      <trkpt lat="44.27687" lon="0.51463">
        <ele>108.77</ele>
        <time>2012-02-25T08:30:48Z</time>
      </trkpt>
      <trkpt lat="44.27698" lon="0.51441">
        <ele>105.4</ele>
        <time>2012-02-25T08:30:51Z</time>
      </trkpt>
      <trkpt lat="44.27708" lon="0.51423">
        <ele>101.08</ele>
        <time>2012-02-25T08:30:54Z</time>
      </trkpt>
      <trkpt lat="44.27714" lon="0.5141">
        <ele>99.15</ele>
        <time>2012-02-25T08:30:56Z</time>
      </trkpt>
      <trkpt lat="44.27716" lon="0.51404">
        <ele>98.19</ele>
        <time>2012-02-25T08:30:57Z</time>
      </trkpt>
      <trkpt lat="44.27718" lon="0.51398">
        <ele>96.75</ele>
        <time>2012-02-25T08:30:58Z</time>
      </trkpt>
      <trkpt lat="44.2772" lon="0.51392">
        <ele>96.27</ele>
        <time>2012-02-25T08:30:59Z</time>
      </trkpt>
      <trkpt lat="44.2772" lon="0.51386">
        <ele>95.31</ele>
        <time>2012-02-25T08:31:00Z</time>
      </trkpt>
      <trkpt lat="44.27719" lon="0.5138">
        <ele>94.35</ele>
        <time>2012-02-25T08:31:01Z</time>
      </trkpt>
      <trkpt lat="44.27717" lon="0.51375">
        <ele>93.87</ele>
        <time>2012-02-25T08:31:02Z</time>
      </trkpt>
      <trkpt lat="44.27714" lon="0.5137">
        <ele>93.39</ele>
        <time>2012-02-25T08:31:03Z</time>
      </trkpt>
      <trkpt lat="44.27712" lon="0.51367">
        <ele>92.9</ele>
        <time>2012-02-25T08:31:04Z</time>
      </trkpt>
      <trkpt lat="44.27701" lon="0.51354">
        <ele>92.42</ele>
        <time>2012-02-25T08:31:09Z</time>
      </trkpt>
      <trkpt lat="44.27701" lon="0.5135">
        <ele>92.42</ele>
        <time>2012-02-25T08:31:10Z</time>
      </trkpt>
      <trkpt lat="44.27698" lon="0.51341">
        <ele>91.94</ele>
        <time>2012-02-25T08:31:12Z</time>
      </trkpt>
      <trkpt lat="44.27694" lon="0.51337">
        <ele>91.46</ele>
        <time>2012-02-25T08:31:13Z</time>
      </trkpt>
      <trkpt lat="44.27691" lon="0.51333">
        <ele>90.98</ele>
        <time>2012-02-25T08:31:14Z</time>
      </trkpt>
      <trkpt lat="44.27688" lon="0.51328">
        <ele>90.5</ele>
        <time>2012-02-25T08:31:15Z</time>
      </trkpt>
      <trkpt lat="44.27685" lon="0.51324">
        <ele>90.02</ele>
        <time>2012-02-25T08:31:16Z</time>
      </trkpt>
      <trkpt lat="44.27682" lon="0.51318">
        <ele>90.02</ele>
        <time>2012-02-25T08:31:17Z</time>
      </trkpt>
      <trkpt lat="44.27676" lon="0.51307">
        <ele>89.54</ele>
        <time>2012-02-25T08:31:19Z</time>
      </trkpt>
      <trkpt lat="44.27672" lon="0.51301">
        <ele>89.06</ele>
        <time>2012-02-25T08:31:20Z</time>
      </trkpt>
      <trkpt lat="44.27668" lon="0.51297">
        <ele>89.54</ele>
        <time>2012-02-25T08:31:21Z</time>
      </trkpt>
      <trkpt lat="44.27664" lon="0.51292">
        <ele>89.54</ele>
        <time>2012-02-25T08:31:22Z</time>
      </trkpt>
      <trkpt lat="44.2766" lon="0.51287">
        <ele>89.06</ele>
        <time>2012-02-25T08:31:23Z</time>
      </trkpt>
      <trkpt lat="44.27627" lon="0.51256">
        <ele>88.58</ele>
        <time>2012-02-25T08:31:31Z</time>
      </trkpt>
      <trkpt lat="44.27623" lon="0.51253">
        <ele>89.06</ele>
        <time>2012-02-25T08:31:32Z</time>
      </trkpt>
      <trkpt lat="44.27608" lon="0.51241">
        <ele>88.58</ele>
        <time>2012-02-25T08:31:36Z</time>
      </trkpt>
      <trkpt lat="44.27581" lon="0.51224">
        <ele>89.06</ele>
        <time>2012-02-25T08:31:43Z</time>
      </trkpt>
      <trkpt lat="44.27531" lon="0.51176">
        <ele>85.69</ele>
        <time>2012-02-25T08:31:55Z</time>
      </trkpt>
      <trkpt lat="44.27506" lon="0.51155">
        <ele>85.21</ele>
        <time>2012-02-25T08:32:00Z</time>
      </trkpt>
      <trkpt lat="44.2749" lon="0.51145">
        <ele>84.73</ele>
        <time>2012-02-25T08:32:03Z</time>
      </trkpt>
      <trkpt lat="44.27485" lon="0.51142">
        <ele>84.73</ele>
        <time>2012-02-25T08:32:04Z</time>
      </trkpt>
      <trkpt lat="44.27464" lon="0.51132">
        <ele>83.77</ele>
        <time>2012-02-25T08:32:08Z</time>
      </trkpt>
      <trkpt lat="44.27459" lon="0.51129">
        <ele>84.25</ele>
        <time>2012-02-25T08:32:09Z</time>
      </trkpt>
      <trkpt lat="44.2744" lon="0.51114">
        <ele>82.81</ele>
        <time>2012-02-25T08:32:13Z</time>
      </trkpt>
      <trkpt lat="44.27426" lon="0.51101">
        <ele>82.81</ele>
        <time>2012-02-25T08:32:16Z</time>
      </trkpt>
      <trkpt lat="44.27422" lon="0.51096">
        <ele>82.81</ele>
        <time>2012-02-25T08:32:17Z</time>
      </trkpt>
      <trkpt lat="44.27402" lon="0.51073">
        <ele>82.33</ele>
        <time>2012-02-25T08:32:22Z</time>
      </trkpt>
      <trkpt lat="44.27392" lon="0.51054">
        <ele>80.89</ele>
        <time>2012-02-25T08:32:25Z</time>
      </trkpt>
      <trkpt lat="44.27369" lon="0.5102">
        <ele>78.48</ele>
        <time>2012-02-25T08:32:30Z</time>
      </trkpt>
      <trkpt lat="44.27363" lon="0.51015">
        <ele>77.52</ele>
        <time>2012-02-25T08:32:31Z</time>
      </trkpt>
      <trkpt lat="44.27356" lon="0.51012">
        <ele>77.52</ele>
        <time>2012-02-25T08:32:32Z</time>
      </trkpt>
      <trkpt lat="44.27346" lon="0.51008">
        <ele>78.48</ele>
        <time>2012-02-25T08:32:37Z</time>
      </trkpt>
      <trkpt lat="44.27333" lon="0.51006">
        <ele>78.97</ele>
        <time>2012-02-25T08:32:49Z</time>
      </trkpt>
      <trkpt lat="44.2733" lon="0.51006">
        <ele>78.97</ele>
        <time>2012-02-25T08:32:50Z</time>
      </trkpt>
      <trkpt lat="44.27327" lon="0.51006">
        <ele>78.97</ele>
        <time>2012-02-25T08:32:51Z</time>
      </trkpt>
      <trkpt lat="44.27324" lon="0.51005">
        <ele>78.97</ele>
        <time>2012-02-25T08:32:52Z</time>
      </trkpt>
      <trkpt lat="44.27322" lon="0.51005">
        <ele>78.97</ele>
        <time>2012-02-25T08:32:53Z</time>
      </trkpt>
      <trkpt lat="44.27297" lon="0.51005">
        <ele>79.93</ele>
        <time>2012-02-25T08:33:04Z</time>
      </trkpt>
      <trkpt lat="44.2728" lon="0.51005">
        <ele>80.41</ele>
        <time>2012-02-25T08:33:13Z</time>
      </trkpt>
      <trkpt lat="44.27278" lon="0.51003">
        <ele>79.45</ele>
        <time>2012-02-25T08:33:38Z</time>
      </trkpt>
      <trkpt lat="44.27275" lon="0.51003">
        <ele>79.45</ele>
        <time>2012-02-25T08:34:08Z</time>
      </trkpt>
      <trkpt lat="44.27266" lon="0.51002">
        <ele>78.97</ele>
        <time>2012-02-25T08:34:24Z</time>
      </trkpt>
      <trkpt lat="44.27225" lon="0.50987">
        <ele>80.41</ele>
        <time>2012-02-25T08:34:38Z</time>
      </trkpt>
      <trkpt lat="44.27186" lon="0.50967">
        <ele>82.81</ele>
        <time>2012-02-25T08:34:54Z</time>
      </trkpt>
      <trkpt lat="44.27184" lon="0.50966">
        <ele>83.29</ele>
        <time>2012-02-25T08:34:55Z</time>
      </trkpt>
      <trkpt lat="44.27182" lon="0.50964">
        <ele>83.77</ele>
        <time>2012-02-25T08:34:56Z</time>
      </trkpt>
      <trkpt lat="44.27181" lon="0.50962">
        <ele>83.77</ele>
        <time>2012-02-25T08:34:57Z</time>
      </trkpt>
      <trkpt lat="44.27179" lon="0.50961">
        <ele>83.77</ele>
        <time>2012-02-25T08:34:58Z</time>
      </trkpt>
      <trkpt lat="44.27176" lon="0.5096">
        <ele>84.25</ele>
        <time>2012-02-25T08:34:59Z</time>
      </trkpt>
      <trkpt lat="44.27174" lon="0.50959">
        <ele>84.25</ele>
        <time>2012-02-25T08:35:00Z</time>
      </trkpt>
      <trkpt lat="44.27172" lon="0.50957">
        <ele>84.73</ele>
        <time>2012-02-25T08:35:01Z</time>
      </trkpt>
      <trkpt lat="44.27169" lon="0.50957">
        <ele>84.73</ele>
        <time>2012-02-25T08:35:02Z</time>
      </trkpt>
      <trkpt lat="44.27167" lon="0.50956">
        <ele>84.73</ele>
        <time>2012-02-25T08:35:03Z</time>
      </trkpt>
      <trkpt lat="44.27164" lon="0.50957">
        <ele>84.73</ele>
        <time>2012-02-25T08:35:04Z</time>
      </trkpt>
      <trkpt lat="44.27161" lon="0.50956">
        <ele>84.73</ele>
        <time>2012-02-25T08:35:05Z</time>
      </trkpt>
      <trkpt lat="44.27129" lon="0.50969">
        <ele>84.25</ele>
        <time>2012-02-25T08:35:15Z</time>
      </trkpt>
      <trkpt lat="44.27107" lon="0.50976">
        <ele>82.33</ele>
        <time>2012-02-25T08:35:20Z</time>
      </trkpt>
      <trkpt lat="44.27082" lon="0.50984">
        <ele>78.97</ele>
        <time>2012-02-25T08:35:24Z</time>
      </trkpt>
      <trkpt lat="44.27066" lon="0.50991">
        <ele>75.12</ele>
        <time>2012-02-25T08:35:26Z</time>
      </trkpt>
      <trkpt lat="44.27051" lon="0.50997">
        <ele>73.68</ele>
        <time>2012-02-25T08:35:28Z</time>
      </trkpt>
      <trkpt lat="44.27045" lon="0.50998">
        <ele>73.2</ele>
        <time>2012-02-25T08:35:29Z</time>
      </trkpt>
      <trkpt lat="44.27039" lon="0.50997">
        <ele>72.24</ele>
        <time>2012-02-25T08:35:30Z</time>
      </trkpt>
      <trkpt lat="44.27033" lon="0.50995">
        <ele>71.27</ele>
        <time>2012-02-25T08:35:31Z</time>
      </trkpt>
      <trkpt lat="44.27027" lon="0.50992">
        <ele>71.27</ele>
        <time>2012-02-25T08:35:32Z</time>
      </trkpt>
      <trkpt lat="44.27021" lon="0.50989">
        <ele>70.31</ele>
        <time>2012-02-25T08:35:33Z</time>
      </trkpt>
      <trkpt lat="44.27016" lon="0.50986">
        <ele>70.31</ele>
        <time>2012-02-25T08:35:34Z</time>
      </trkpt>
      <trkpt lat="44.27008" lon="0.50986">
        <ele>71.27</ele>
        <time>2012-02-25T08:35:36Z</time>
      </trkpt>
      <trkpt lat="44.27006" lon="0.50987">
        <ele>71.76</ele>
        <time>2012-02-25T08:35:37Z</time>
      </trkpt>
      <trkpt lat="44.27003" lon="0.5099">
        <ele>71.76</ele>
        <time>2012-02-25T08:35:38Z</time>
      </trkpt>
      <trkpt lat="44.27001" lon="0.50993">
        <ele>72.72</ele>
        <time>2012-02-25T08:35:39Z</time>
      </trkpt>
      <trkpt lat="44.27" lon="0.50995">
        <ele>72.72</ele>
        <time>2012-02-25T08:35:40Z</time>
      </trkpt>
      <trkpt lat="44.26999" lon="0.50998">
        <ele>72.72</ele>
        <time>2012-02-25T08:35:41Z</time>
      </trkpt>
      <trkpt lat="44.26983" lon="0.51028">
        <ele>74.64</ele>
        <time>2012-02-25T08:35:53Z</time>
      </trkpt>
      <trkpt lat="44.26966" lon="0.51056">
        <ele>78</ele>
        <time>2012-02-25T08:36:07Z</time>
      </trkpt>
      <trkpt lat="44.26961" lon="0.51062">
        <ele>78</ele>
        <time>2012-02-25T08:36:10Z</time>
      </trkpt>
      <trkpt lat="44.2696" lon="0.51063">
        <ele>78.48</ele>
        <time>2012-02-25T08:36:11Z</time>
      </trkpt>
      <trkpt lat="44.26959" lon="0.51065">
        <ele>78.48</ele>
        <time>2012-02-25T08:36:12Z</time>
      </trkpt>
      <trkpt lat="44.26951" lon="0.51077">
        <ele>79.45</ele>
        <time>2012-02-25T08:36:19Z</time>
      </trkpt>
      <trkpt lat="44.2695" lon="0.51078">
        <ele>79.45</ele>
        <time>2012-02-25T08:36:20Z</time>
      </trkpt>
      <trkpt lat="44.26948" lon="0.5108">
        <ele>79.93</ele>
        <time>2012-02-25T08:36:21Z</time>
      </trkpt>
      <trkpt lat="44.26947" lon="0.51082">
        <ele>79.93</ele>
        <time>2012-02-25T08:36:22Z</time>
      </trkpt>
      <trkpt lat="44.26945" lon="0.51085">
        <ele>80.41</ele>
        <time>2012-02-25T08:36:23Z</time>
      </trkpt>
      <trkpt lat="44.26944" lon="0.51087">
        <ele>80.41</ele>
        <time>2012-02-25T08:36:24Z</time>
      </trkpt>
      <trkpt lat="44.26942" lon="0.51089">
        <ele>80.41</ele>
        <time>2012-02-25T08:36:25Z</time>
      </trkpt>
      <trkpt lat="44.26941" lon="0.51091">
        <ele>80.41</ele>
        <time>2012-02-25T08:36:26Z</time>
      </trkpt>
      <trkpt lat="44.26939" lon="0.51092">
        <ele>80.41</ele>
        <time>2012-02-25T08:36:27Z</time>
      </trkpt>
      <trkpt lat="44.26938" lon="0.51094">
        <ele>80.89</ele>
        <time>2012-02-25T08:36:28Z</time>
      </trkpt>
      <trkpt lat="44.26936" lon="0.51096">
        <ele>80.89</ele>
        <time>2012-02-25T08:36:29Z</time>
      </trkpt>
      <trkpt lat="44.26935" lon="0.51097">
        <ele>81.37</ele>
        <time>2012-02-25T08:36:30Z</time>
      </trkpt>
      <trkpt lat="44.26934" lon="0.511">
        <ele>81.37</ele>
        <time>2012-02-25T08:36:31Z</time>
      </trkpt>
      <trkpt lat="44.26919" lon="0.51117">
        <ele>83.77</ele>
        <time>2012-02-25T08:36:42Z</time>
      </trkpt>
      <trkpt lat="44.26915" lon="0.51123">
        <ele>84.25</ele>
        <time>2012-02-25T08:36:45Z</time>
      </trkpt>
      <trkpt lat="44.26913" lon="0.51124">
        <ele>84.73</ele>
        <time>2012-02-25T08:36:46Z</time>
      </trkpt>
      <trkpt lat="44.26911" lon="0.51125">
        <ele>84.73</ele>
        <time>2012-02-25T08:36:47Z</time>
      </trkpt>
      <trkpt lat="44.26909" lon="0.51126">
        <ele>84.73</ele>
        <time>2012-02-25T08:36:48Z</time>
      </trkpt>
      <trkpt lat="44.26908" lon="0.51126">
        <ele>85.21</ele>
        <time>2012-02-25T08:36:49Z</time>
      </trkpt>
      <trkpt lat="44.26906" lon="0.51128">
        <ele>85.21</ele>
        <time>2012-02-25T08:36:50Z</time>
      </trkpt>
      <trkpt lat="44.26905" lon="0.51129">
        <ele>85.21</ele>
        <time>2012-02-25T08:36:51Z</time>
      </trkpt>
      <trkpt lat="44.26903" lon="0.51131">
        <ele>85.21</ele>
        <time>2012-02-25T08:36:52Z</time>
      </trkpt>
      <trkpt lat="44.26879" lon="0.51154">
        <ele>85.21</ele>
        <time>2012-02-25T08:37:06Z</time>
      </trkpt>
      <trkpt lat="44.26863" lon="0.5117">
        <ele>86.18</ele>
        <time>2012-02-25T08:37:17Z</time>
      </trkpt>
      <trkpt lat="44.26844" lon="0.51186">
        <ele>87.62</ele>
        <time>2012-02-25T08:37:31Z</time>
      </trkpt>
      <trkpt lat="44.26824" lon="0.51204">
        <ele>89.54</ele>
        <time>2012-02-25T08:37:45Z</time>
      </trkpt>
      <trkpt lat="44.26822" lon="0.51208">
        <ele>90.02</ele>
        <time>2012-02-25T08:37:48Z</time>
      </trkpt>
      <trkpt lat="44.26814" lon="0.51216">
        <ele>90.98</ele>
        <time>2012-02-25T08:37:55Z</time>
      </trkpt>
      <trkpt lat="44.26797" lon="0.5124">
        <ele>92.42</ele>
        <time>2012-02-25T08:38:12Z</time>
      </trkpt>
      <trkpt lat="44.26783" lon="0.51257">
        <ele>93.39</ele>
        <time>2012-02-25T08:38:25Z</time>
      </trkpt>
      <trkpt lat="44.26777" lon="0.51263">
        <ele>94.35</ele>
        <time>2012-02-25T08:38:31Z</time>
      </trkpt>
      <trkpt lat="44.26773" lon="0.51268">
        <ele>94.83</ele>
        <time>2012-02-25T08:38:36Z</time>
      </trkpt>
      <trkpt lat="44.26769" lon="0.51269">
        <ele>95.31</ele>
        <time>2012-02-25T08:38:39Z</time>
      </trkpt>
      <trkpt lat="44.26762" lon="0.51273">
        <ele>96.27</ele>
        <time>2012-02-25T08:38:47Z</time>
      </trkpt>
      <trkpt lat="44.2676" lon="0.51273">
        <ele>96.75</ele>
        <time>2012-02-25T08:38:49Z</time>
      </trkpt>
      <trkpt lat="44.26755" lon="0.51271">
        <ele>97.71</ele>
        <time>2012-02-25T08:38:55Z</time>
      </trkpt>
      <trkpt lat="44.26742" lon="0.51259">
        <ele>101.08</ele>
        <time>2012-02-25T08:39:09Z</time>
      </trkpt>
      <trkpt lat="44.2674" lon="0.51255">
        <ele>101.56</ele>
        <time>2012-02-25T08:39:21Z</time>
      </trkpt>
      <trkpt lat="44.26736" lon="0.51251">
        <ele>103</ele>
        <time>2012-02-25T08:39:36Z</time>
      </trkpt>
      <trkpt lat="44.26734" lon="0.51246">
        <ele>104.92</ele>
        <time>2012-02-25T08:39:47Z</time>
      </trkpt>
      <trkpt lat="44.26734" lon="0.51244">
        <ele>104.44</ele>
        <time>2012-02-25T08:39:49Z</time>
      </trkpt>
      <trkpt lat="44.26733" lon="0.51226">
        <ele>107.32</ele>
        <time>2012-02-25T08:40:01Z</time>
      </trkpt>
      <trkpt lat="44.26736" lon="0.51222">
        <ele>108.29</ele>
        <time>2012-02-25T08:40:05Z</time>
      </trkpt>
      <trkpt lat="44.26741" lon="0.51206">
        <ele>109.25</ele>
        <time>2012-02-25T08:40:15Z</time>
      </trkpt>
      <trkpt lat="44.26747" lon="0.51196">
        <ele>109.25</ele>
        <time>2012-02-25T08:40:21Z</time>
      </trkpt>
      <trkpt lat="44.26751" lon="0.5118">
        <ele>109.73</ele>
        <time>2012-02-25T08:40:30Z</time>
      </trkpt>
      <trkpt lat="44.26757" lon="0.51157">
        <ele>109.25</ele>
        <time>2012-02-25T08:40:41Z</time>
      </trkpt>
      <trkpt lat="44.26762" lon="0.51146">
        <ele>109.25</ele>
        <time>2012-02-25T08:40:45Z</time>
      </trkpt>
      <trkpt lat="44.26781" lon="0.51109">
        <ele>109.25</ele>
        <time>2012-02-25T08:41:00Z</time>
      </trkpt>
      <trkpt lat="44.26795" lon="0.51081">
        <ele>110.69</ele>
        <time>2012-02-25T08:41:14Z</time>
      </trkpt>
      <trkpt lat="44.26795" lon="0.51068">
        <ele>112.61</ele>
        <time>2012-02-25T08:41:20Z</time>
      </trkpt>
      <trkpt lat="44.26795" lon="0.51061">
        <ele>113.57</ele>
        <time>2012-02-25T08:41:24Z</time>
      </trkpt>
      <trkpt lat="44.26796" lon="0.51041">
        <ele>116.94</ele>
        <time>2012-02-25T08:41:34Z</time>
      </trkpt>
      <trkpt lat="44.26791" lon="0.51023">
        <ele>119.82</ele>
        <time>2012-02-25T08:41:47Z</time>
      </trkpt>
      <trkpt lat="44.2679" lon="0.51021">
        <ele>119.34</ele>
        <time>2012-02-25T08:41:50Z</time>
      </trkpt>
      <trkpt lat="44.26789" lon="0.51019">
        <ele>119.82</ele>
        <time>2012-02-25T08:41:52Z</time>
      </trkpt>
      <trkpt lat="44.26782" lon="0.51011">
        <ele>120.3</ele>
        <time>2012-02-25T08:42:04Z</time>
      </trkpt>
      <trkpt lat="44.26783" lon="0.51012">
        <ele>120.3</ele>
        <time>2012-02-25T08:42:31Z</time>
      </trkpt>
      <trkpt lat="44.26783" lon="0.51012">
        <ele>120.3</ele>
        <time>2012-02-25T08:42:55Z</time>
      </trkpt>
      <trkpt lat="44.26777" lon="0.51012">
        <ele>121.26</ele>
        <time>2012-02-25T08:43:00Z</time>
      </trkpt>
      <trkpt lat="44.26768" lon="0.51007">
        <ele>121.26</ele>
        <time>2012-02-25T08:43:06Z</time>
      </trkpt>
      <trkpt lat="44.26756" lon="0.51005">
        <ele>122.22</ele>
        <time>2012-02-25T08:43:14Z</time>
      </trkpt>
      <trkpt lat="44.2675" lon="0.51006">
        <ele>122.71</ele>
        <time>2012-02-25T08:43:18Z</time>
      </trkpt>
      <trkpt lat="44.26723" lon="0.5102">
        <ele>124.15</ele>
        <time>2012-02-25T08:43:34Z</time>
      </trkpt>
      <trkpt lat="44.26717" lon="0.51024">
        <ele>124.15</ele>
        <time>2012-02-25T08:43:38Z</time>
      </trkpt>
      <trkpt lat="44.26703" lon="0.51048">
        <ele>124.63</ele>
        <time>2012-02-25T08:43:51Z</time>
      </trkpt>
      <trkpt lat="44.26673" lon="0.51061">
        <ele>123.19</ele>
        <time>2012-02-25T08:44:02Z</time>
      </trkpt>
      <trkpt lat="44.26668" lon="0.51065">
        <ele>126.07</ele>
        <time>2012-02-25T08:44:05Z</time>
      </trkpt>
      <trkpt lat="44.26667" lon="0.51066">
        <ele>126.07</ele>
        <time>2012-02-25T08:44:06Z</time>
      </trkpt>
      <trkpt lat="44.26658" lon="0.51084">
        <ele>126.55</ele>
        <time>2012-02-25T08:44:17Z</time>
      </trkpt>
      <trkpt lat="44.26655" lon="0.51094">
        <ele>127.03</ele>
        <time>2012-02-25T08:44:22Z</time>
      </trkpt>
      <trkpt lat="44.26648" lon="0.51106">
        <ele>127.51</ele>
        <time>2012-02-25T08:44:28Z</time>
      </trkpt>
      <trkpt lat="44.26637" lon="0.51122">
        <ele>128.47</ele>
        <time>2012-02-25T08:44:38Z</time>
      </trkpt>
      <trkpt lat="44.2663" lon="0.51134">
        <ele>128.95</ele>
        <time>2012-02-25T08:44:44Z</time>
      </trkpt>
      <trkpt lat="44.26619" lon="0.51152">
        <ele>130.4</ele>
        <time>2012-02-25T08:44:54Z</time>
      </trkpt>
      <trkpt lat="44.26602" lon="0.51156">
        <ele>130.88</ele>
        <time>2012-02-25T08:45:06Z</time>
      </trkpt>
      <trkpt lat="44.26578" lon="0.51132">
        <ele>130.88</ele>
        <time>2012-02-25T08:45:21Z</time>
      </trkpt>
      <trkpt lat="44.26553" lon="0.51109">
        <ele>131.84</ele>
        <time>2012-02-25T08:45:37Z</time>
      </trkpt>
      <trkpt lat="44.26531" lon="0.51086">
        <ele>133.28</ele>
        <time>2012-02-25T08:45:52Z</time>
      </trkpt>
      <trkpt lat="44.26527" lon="0.51084">
        <ele>133.28</ele>
        <time>2012-02-25T08:45:54Z</time>
      </trkpt>
      <trkpt lat="44.26521" lon="0.51089">
        <ele>134.24</ele>
        <time>2012-02-25T08:45:59Z</time>
      </trkpt>
      <trkpt lat="44.26512" lon="0.51108">
        <ele>136.64</ele>
        <time>2012-02-25T08:46:13Z</time>
      </trkpt>
      <trkpt lat="44.26501" lon="0.51125">
        <ele>139.05</ele>
        <time>2012-02-25T08:46:29Z</time>
      </trkpt>
      <trkpt lat="44.26494" lon="0.51143">
        <ele>140.49</ele>
        <time>2012-02-25T08:46:42Z</time>
      </trkpt>
      <trkpt lat="44.26491" lon="0.51147">
        <ele>141.45</ele>
        <time>2012-02-25T08:46:46Z</time>
      </trkpt>
      <trkpt lat="44.26485" lon="0.51157">
        <ele>142.89</ele>
        <time>2012-02-25T08:46:55Z</time>
      </trkpt>
      <trkpt lat="44.26476" lon="0.51172">
        <ele>145.3</ele>
        <time>2012-02-25T08:47:09Z</time>
      </trkpt>
      <trkpt lat="44.26467" lon="0.5119">
        <ele>147.22</ele>
        <time>2012-02-25T08:47:24Z</time>
      </trkpt>
      <trkpt lat="44.26454" lon="0.51187">
        <ele>148.18</ele>
        <time>2012-02-25T08:47:36Z</time>
      </trkpt>
      <trkpt lat="44.26438" lon="0.51164">
        <ele>148.66</ele>
        <time>2012-02-25T08:47:50Z</time>
      </trkpt>
      <trkpt lat="44.26419" lon="0.51137">
        <ele>148.18</ele>
        <time>2012-02-25T08:48:04Z</time>
      </trkpt>
      <trkpt lat="44.26401" lon="0.5111">
        <ele>148.18</ele>
        <time>2012-02-25T08:48:17Z</time>
      </trkpt>
      <trkpt lat="44.26407" lon="0.51085">
        <ele>144.82</ele>
        <time>2012-02-25T08:48:26Z</time>
      </trkpt>
      <trkpt lat="44.26409" lon="0.5108">
        <ele>144.34</ele>
        <time>2012-02-25T08:48:27Z</time>
      </trkpt>
      <trkpt lat="44.26411" lon="0.51074">
        <ele>143.37</ele>
        <time>2012-02-25T08:48:28Z</time>
      </trkpt>
      <trkpt lat="44.26414" lon="0.51061">
        <ele>141.93</ele>
        <time>2012-02-25T08:48:30Z</time>
      </trkpt>
      <trkpt lat="44.26415" lon="0.51054">
        <ele>140.49</ele>
        <time>2012-02-25T08:48:31Z</time>
      </trkpt>
      <trkpt lat="44.26416" lon="0.51048">
        <ele>140.01</ele>
        <time>2012-02-25T08:48:32Z</time>
      </trkpt>
      <trkpt lat="44.2642" lon="0.51034">
        <ele>138.57</ele>
        <time>2012-02-25T08:48:35Z</time>
      </trkpt>
      <trkpt lat="44.2642" lon="0.51032">
        <ele>137.61</ele>
        <time>2012-02-25T08:48:36Z</time>
      </trkpt>
      <trkpt lat="44.2642" lon="0.5103">
        <ele>137.61</ele>
        <time>2012-02-25T08:48:37Z</time>
      </trkpt>
      <trkpt lat="44.26419" lon="0.51028">
        <ele>137.13</ele>
        <time>2012-02-25T08:48:38Z</time>
      </trkpt>
      <trkpt lat="44.26416" lon="0.51027">
        <ele>137.61</ele>
        <time>2012-02-25T08:48:40Z</time>
      </trkpt>
      <trkpt lat="44.26393" lon="0.51031">
        <ele>139.53</ele>
        <time>2012-02-25T08:48:55Z</time>
      </trkpt>
      <trkpt lat="44.26383" lon="0.51032">
        <ele>140.97</ele>
        <time>2012-02-25T08:49:02Z</time>
      </trkpt>
      <trkpt lat="44.26376" lon="0.51034">
        <ele>141.45</ele>
        <time>2012-02-25T08:49:07Z</time>
      </trkpt>
      <trkpt lat="44.26354" lon="0.51038">
        <ele>143.37</ele>
        <time>2012-02-25T08:49:23Z</time>
      </trkpt>
      <trkpt lat="44.26339" lon="0.5104">
        <ele>144.82</ele>
        <time>2012-02-25T08:49:34Z</time>
      </trkpt>
      <trkpt lat="44.2633" lon="0.51041">
        <ele>144.82</ele>
        <time>2012-02-25T08:49:39Z</time>
      </trkpt>
      <trkpt lat="44.26313" lon="0.51045">
        <ele>145.3</ele>
        <time>2012-02-25T08:49:49Z</time>
      </trkpt>
      <trkpt lat="44.26307" lon="0.51048">
        <ele>145.78</ele>
        <time>2012-02-25T08:49:53Z</time>
      </trkpt>
      <trkpt lat="44.26303" lon="0.51054">
        <ele>146.74</ele>
        <time>2012-02-25T08:49:57Z</time>
      </trkpt>
      <trkpt lat="44.26287" lon="0.5108">
        <ele>149.62</ele>
        <time>2012-02-25T08:50:18Z</time>
      </trkpt>
      <trkpt lat="44.26276" lon="0.51096">
        <ele>151.06</ele>
        <time>2012-02-25T08:50:31Z</time>
      </trkpt>
      <trkpt lat="44.26271" lon="0.51103">
        <ele>152.03</ele>
        <time>2012-02-25T08:50:37Z</time>
      </trkpt>
      <trkpt lat="44.26266" lon="0.5111">
        <ele>152.51</ele>
        <time>2012-02-25T08:50:43Z</time>
      </trkpt>
      <trkpt lat="44.26253" lon="0.51129">
        <ele>153.95</ele>
        <time>2012-02-25T08:50:59Z</time>
      </trkpt>
      <trkpt lat="44.26242" lon="0.51145">
        <ele>155.87</ele>
        <time>2012-02-25T08:51:13Z</time>
      </trkpt>
      <trkpt lat="44.26233" lon="0.51157">
        <ele>157.31</ele>
        <time>2012-02-25T08:51:24Z</time>
      </trkpt>
      <trkpt lat="44.26226" lon="0.51168">
        <ele>158.27</ele>
        <time>2012-02-25T08:51:33Z</time>
      </trkpt>
      <trkpt lat="44.26211" lon="0.51191">
        <ele>160.68</ele>
        <time>2012-02-25T08:51:53Z</time>
      </trkpt>
      <trkpt lat="44.26208" lon="0.51194">
        <ele>161.16</ele>
        <time>2012-02-25T08:51:56Z</time>
      </trkpt>
      <trkpt lat="44.26205" lon="0.51199">
        <ele>162.12</ele>
        <time>2012-02-25T08:52:01Z</time>
      </trkpt>
      <trkpt lat="44.26197" lon="0.51206">
        <ele>163.08</ele>
        <time>2012-02-25T08:52:09Z</time>
      </trkpt>
      <trkpt lat="44.26168" lon="0.51184">
        <ele>162.6</ele>
        <time>2012-02-25T08:52:23Z</time>
      </trkpt>
      <trkpt lat="44.26145" lon="0.51159">
        <ele>162.12</ele>
        <time>2012-02-25T08:52:30Z</time>
      </trkpt>
      <trkpt lat="44.26141" lon="0.51156">
        <ele>161.64</ele>
        <time>2012-02-25T08:52:31Z</time>
      </trkpt>
      <trkpt lat="44.26135" lon="0.51148">
        <ele>161.64</ele>
        <time>2012-02-25T08:52:33Z</time>
      </trkpt>
      <trkpt lat="44.26126" lon="0.51139">
        <ele>161.16</ele>
        <time>2012-02-25T08:52:36Z</time>
      </trkpt>
      <trkpt lat="44.26122" lon="0.51138">
        <ele>161.64</ele>
        <time>2012-02-25T08:52:37Z</time>
      </trkpt>
      <trkpt lat="44.26119" lon="0.51138">
        <ele>161.64</ele>
        <time>2012-02-25T08:52:38Z</time>
      </trkpt>
      <trkpt lat="44.26116" lon="0.51139">
        <ele>161.64</ele>
        <time>2012-02-25T08:52:39Z</time>
      </trkpt>
      <trkpt lat="44.26114" lon="0.51141">
        <ele>162.12</ele>
        <time>2012-02-25T08:52:40Z</time>
      </trkpt>
      <trkpt lat="44.26085" lon="0.5116">
        <ele>163.56</ele>
        <time>2012-02-25T08:52:56Z</time>
      </trkpt>
      <trkpt lat="44.26054" lon="0.51179">
        <ele>165.96</ele>
        <time>2012-02-25T08:53:14Z</time>
      </trkpt>
      <trkpt lat="44.2602" lon="0.51177">
        <ele>165.48</ele>
        <time>2012-02-25T08:53:28Z</time>
      </trkpt>
      <trkpt lat="44.25998" lon="0.51171">
        <ele>163.56</ele>
        <time>2012-02-25T08:53:33Z</time>
      </trkpt>
      <trkpt lat="44.25987" lon="0.51167">
        <ele>162.12</ele>
        <time>2012-02-25T08:53:35Z</time>
      </trkpt>
      <trkpt lat="44.25954" lon="0.51155">
        <ele>159.72</ele>
        <time>2012-02-25T08:53:40Z</time>
      </trkpt>
      <trkpt lat="44.25865" lon="0.51118">
        <ele>157.31</ele>
        <time>2012-02-25T08:53:54Z</time>
      </trkpt>
      <trkpt lat="44.25831" lon="0.51102">
        <ele>153.95</ele>
        <time>2012-02-25T08:54:00Z</time>
      </trkpt>
      <trkpt lat="44.25808" lon="0.51089">
        <ele>150.1</ele>
        <time>2012-02-25T08:54:03Z</time>
      </trkpt>
      <trkpt lat="44.25782" lon="0.51072">
        <ele>146.26</ele>
        <time>2012-02-25T08:54:06Z</time>
      </trkpt>
      <trkpt lat="44.25763" lon="0.5106">
        <ele>142.89</ele>
        <time>2012-02-25T08:54:08Z</time>
      </trkpt>
      <trkpt lat="44.25742" lon="0.51048">
        <ele>140.01</ele>
        <time>2012-02-25T08:54:10Z</time>
      </trkpt>
      <trkpt lat="44.2571" lon="0.51029">
        <ele>137.61</ele>
        <time>2012-02-25T08:54:14Z</time>
      </trkpt>
      <trkpt lat="44.25706" lon="0.51027">
        <ele>137.61</ele>
        <time>2012-02-25T08:54:16Z</time>
      </trkpt>
      <trkpt lat="44.25705" lon="0.51028">
        <ele>137.61</ele>
        <time>2012-02-25T08:54:17Z</time>
      </trkpt>
      <trkpt lat="44.25703" lon="0.51046">
        <ele>136.16</ele>
        <time>2012-02-25T08:54:24Z</time>
      </trkpt>
      <trkpt lat="44.25707" lon="0.51089">
        <ele>135.2</ele>
        <time>2012-02-25T08:54:34Z</time>
      </trkpt>
      <trkpt lat="44.25715" lon="0.51151">
        <ele>133.28</ele>
        <time>2012-02-25T08:54:47Z</time>
      </trkpt>
      <trkpt lat="44.2573" lon="0.51197">
        <ele>132.32</ele>
        <time>2012-02-25T08:54:58Z</time>
      </trkpt>
      <trkpt lat="44.25752" lon="0.51238">
        <ele>133.28</ele>
        <time>2012-02-25T08:55:10Z</time>
      </trkpt>
      <trkpt lat="44.25761" lon="0.51251">
        <ele>134.24</ele>
        <time>2012-02-25T08:55:16Z</time>
      </trkpt>
      <trkpt lat="44.2577" lon="0.51269">
        <ele>134.72</ele>
        <time>2012-02-25T08:55:24Z</time>
      </trkpt>
      <trkpt lat="44.25782" lon="0.51308">
        <ele>133.28</ele>
        <time>2012-02-25T08:55:35Z</time>
      </trkpt>
      <trkpt lat="44.2578" lon="0.51352">
        <ele>132.32</ele>
        <time>2012-02-25T08:55:46Z</time>
      </trkpt>
      <trkpt lat="44.25777" lon="0.51377">
        <ele>133.28</ele>
        <time>2012-02-25T08:55:57Z</time>
      </trkpt>
      <trkpt lat="44.25782" lon="0.5141">
        <ele>134.72</ele>
        <time>2012-02-25T08:56:09Z</time>
      </trkpt>
      <trkpt lat="44.25782" lon="0.51411">
        <ele>134.72</ele>
        <time>2012-02-25T08:56:10Z</time>
      </trkpt>
      <trkpt lat="44.25782" lon="0.51421">
        <ele>135.2</ele>
        <time>2012-02-25T08:56:15Z</time>
      </trkpt>
      <trkpt lat="44.2578" lon="0.51445">
        <ele>137.61</ele>
        <time>2012-02-25T08:56:25Z</time>
      </trkpt>
      <trkpt lat="44.25779" lon="0.51455">
        <ele>138.09</ele>
        <time>2012-02-25T08:56:30Z</time>
      </trkpt>
      <trkpt lat="44.25779" lon="0.51466">
        <ele>139.05</ele>
        <time>2012-02-25T08:56:36Z</time>
      </trkpt>
      <trkpt lat="44.2578" lon="0.51474">
        <ele>139.53</ele>
        <time>2012-02-25T08:56:41Z</time>
      </trkpt>
      <trkpt lat="44.25786" lon="0.51489">
        <ele>140.97</ele>
        <time>2012-02-25T08:56:52Z</time>
      </trkpt>
      <trkpt lat="44.25799" lon="0.51503">
        <ele>142.41</ele>
        <time>2012-02-25T08:57:05Z</time>
      </trkpt>
      <trkpt lat="44.25812" lon="0.51517">
        <ele>143.85</ele>
        <time>2012-02-25T08:57:20Z</time>
      </trkpt>
      <trkpt lat="44.25814" lon="0.51518">
        <ele>144.82</ele>
        <time>2012-02-25T08:57:22Z</time>
      </trkpt>
      <trkpt lat="44.25818" lon="0.51522">
        <ele>144.82</ele>
        <time>2012-02-25T08:57:26Z</time>
      </trkpt>
      <trkpt lat="44.25825" lon="0.51528">
        <ele>146.74</ele>
        <time>2012-02-25T08:57:41Z</time>
      </trkpt>
      <trkpt lat="44.25832" lon="0.51536">
        <ele>147.7</ele>
        <time>2012-02-25T08:57:54Z</time>
      </trkpt>
      <trkpt lat="44.25836" lon="0.51539">
        <ele>148.66</ele>
        <time>2012-02-25T08:57:58Z</time>
      </trkpt>
      <trkpt lat="44.25838" lon="0.51542">
        <ele>149.62</ele>
        <time>2012-02-25T08:58:01Z</time>
      </trkpt>
      <trkpt lat="44.25846" lon="0.51554">
        <ele>151.54</ele>
        <time>2012-02-25T08:58:12Z</time>
      </trkpt>
      <trkpt lat="44.25849" lon="0.5156">
        <ele>152.03</ele>
        <time>2012-02-25T08:58:17Z</time>
      </trkpt>
      <trkpt lat="44.25867" lon="0.51571">
        <ele>153.47</ele>
        <time>2012-02-25T08:58:33Z</time>
      </trkpt>
      <trkpt lat="44.25871" lon="0.51577">
        <ele>152.99</ele>
        <time>2012-02-25T08:58:37Z</time>
      </trkpt>
      <trkpt lat="44.25872" lon="0.51579">
        <ele>152.99</ele>
        <time>2012-02-25T08:58:39Z</time>
      </trkpt>
      <trkpt lat="44.2587" lon="0.51593">
        <ele>152.03</ele>
        <time>2012-02-25T08:58:47Z</time>
      </trkpt>
      <trkpt lat="44.2587" lon="0.51598">
        <ele>151.54</ele>
        <time>2012-02-25T08:59:02Z</time>
      </trkpt>
      <trkpt lat="44.25871" lon="0.51599">
        <ele>151.54</ele>
        <time>2012-02-25T08:59:13Z</time>
      </trkpt>
      <trkpt lat="44.25852" lon="0.51625">
        <ele>149.62</ele>
        <time>2012-02-25T08:59:24Z</time>
      </trkpt>
      <trkpt lat="44.25846" lon="0.51631">
        <ele>149.14</ele>
        <time>2012-02-25T08:59:26Z</time>
      </trkpt>
      <trkpt lat="44.25817" lon="0.51658">
        <ele>145.3</ele>
        <time>2012-02-25T08:59:33Z</time>
      </trkpt>
      <trkpt lat="44.25796" lon="0.51681">
        <ele>141.45</ele>
        <time>2012-02-25T08:59:37Z</time>
      </trkpt>
      <trkpt lat="44.25773" lon="0.51709">
        <ele>137.61</ele>
        <time>2012-02-25T08:59:41Z</time>
      </trkpt>
      <trkpt lat="44.25756" lon="0.51728">
        <ele>134.72</ele>
        <time>2012-02-25T08:59:44Z</time>
      </trkpt>
      <trkpt lat="44.25721" lon="0.51755">
        <ele>131.36</ele>
        <time>2012-02-25T08:59:49Z</time>
      </trkpt>
      <trkpt lat="44.25675" lon="0.51777">
        <ele>128.47</ele>
        <time>2012-02-25T08:59:58Z</time>
      </trkpt>
      <trkpt lat="44.25663" lon="0.51781">
        <ele>126.07</ele>
        <time>2012-02-25T09:00:01Z</time>
      </trkpt>
      <trkpt lat="44.25644" lon="0.51782">
        <ele>121.26</ele>
        <time>2012-02-25T09:00:05Z</time>
      </trkpt>
      <trkpt lat="44.25629" lon="0.51781">
        <ele>118.86</ele>
        <time>2012-02-25T09:00:08Z</time>
      </trkpt>
      <trkpt lat="44.2561" lon="0.51776">
        <ele>114.53</ele>
        <time>2012-02-25T09:00:11Z</time>
      </trkpt>
      <trkpt lat="44.25593" lon="0.51771">
        <ele>112.13</ele>
        <time>2012-02-25T09:00:14Z</time>
      </trkpt>
      <trkpt lat="44.25573" lon="0.51766">
        <ele>106.84</ele>
        <time>2012-02-25T09:00:18Z</time>
      </trkpt>
      <trkpt lat="44.2556" lon="0.51765">
        <ele>103.48</ele>
        <time>2012-02-25T09:00:20Z</time>
      </trkpt>
      <trkpt lat="44.25547" lon="0.51764">
        <ele>99.63</ele>
        <time>2012-02-25T09:00:22Z</time>
      </trkpt>
      <trkpt lat="44.25532" lon="0.51764">
        <ele>95.31</ele>
        <time>2012-02-25T09:00:24Z</time>
      </trkpt>
      <trkpt lat="44.25516" lon="0.51764">
        <ele>91.94</ele>
        <time>2012-02-25T09:00:26Z</time>
      </trkpt>
      <trkpt lat="44.255" lon="0.51764">
        <ele>88.58</ele>
        <time>2012-02-25T09:00:28Z</time>
      </trkpt>
      <trkpt lat="44.25483" lon="0.51763">
        <ele>85.21</ele>
        <time>2012-02-25T09:00:30Z</time>
      </trkpt>
      <trkpt lat="44.2546" lon="0.51762">
        <ele>80.41</ele>
        <time>2012-02-25T09:00:33Z</time>
      </trkpt>
      <trkpt lat="44.25437" lon="0.51762">
        <ele>77.52</ele>
        <time>2012-02-25T09:00:36Z</time>
      </trkpt>
      <trkpt lat="44.25408" lon="0.51764">
        <ele>73.68</ele>
        <time>2012-02-25T09:00:40Z</time>
      </trkpt>
      <trkpt lat="44.2539" lon="0.5176">
        <ele>70.31</ele>
        <time>2012-02-25T09:00:43Z</time>
      </trkpt>
      <trkpt lat="44.2538" lon="0.51757">
        <ele>66.95</ele>
        <time>2012-02-25T09:00:46Z</time>
      </trkpt>
      <trkpt lat="44.25373" lon="0.51757">
        <ele>65.99</ele>
        <time>2012-02-25T09:00:49Z</time>
      </trkpt>
      <trkpt lat="44.25372" lon="0.51769">
        <ele>65.99</ele>
        <time>2012-02-25T09:00:53Z</time>
      </trkpt>
      <trkpt lat="44.2537" lon="0.51816">
        <ele>66.47</ele>
        <time>2012-02-25T09:01:08Z</time>
      </trkpt>
      <trkpt lat="44.25373" lon="0.51862">
        <ele>66.95</ele>
        <time>2012-02-25T09:01:23Z</time>
      </trkpt>
      <trkpt lat="44.25396" lon="0.51915">
        <ele>66.95</ele>
        <time>2012-02-25T09:01:40Z</time>
      </trkpt>
      <trkpt lat="44.2542" lon="0.51945">
        <ele>67.91</ele>
        <time>2012-02-25T09:01:51Z</time>
      </trkpt>
      <trkpt lat="44.25451" lon="0.5198">
        <ele>68.87</ele>
        <time>2012-02-25T09:02:06Z</time>
      </trkpt>
      <trkpt lat="44.25496" lon="0.52034">
        <ele>69.83</ele>
        <time>2012-02-25T09:02:27Z</time>
      </trkpt>
      <trkpt lat="44.25512" lon="0.52094">
        <ele>68.39</ele>
        <time>2012-02-25T09:02:42Z</time>
      </trkpt>
      <trkpt lat="44.25514" lon="0.5211">
        <ele>67.43</ele>
        <time>2012-02-25T09:02:45Z</time>
      </trkpt>
      <trkpt lat="44.25521" lon="0.5214">
        <ele>66.47</ele>
        <time>2012-02-25T09:02:50Z</time>
      </trkpt>
      <trkpt lat="44.25524" lon="0.52145">
        <ele>65.99</ele>
        <time>2012-02-25T09:02:51Z</time>
      </trkpt>
      <trkpt lat="44.25527" lon="0.52151">
        <ele>65.51</ele>
        <time>2012-02-25T09:02:52Z</time>
      </trkpt>
      <trkpt lat="44.25533" lon="0.52163">
        <ele>65.03</ele>
        <time>2012-02-25T09:02:54Z</time>
      </trkpt>
      <trkpt lat="44.25566" lon="0.5222">
        <ele>62.62</ele>
        <time>2012-02-25T09:03:03Z</time>
      </trkpt>
      <trkpt lat="44.25568" lon="0.52224">
        <ele>62.62</ele>
        <time>2012-02-25T09:03:04Z</time>
      </trkpt>
      <trkpt lat="44.2557" lon="0.52225">
        <ele>63.1</ele>
        <time>2012-02-25T09:03:05Z</time>
      </trkpt>
      <trkpt lat="44.25571" lon="0.52225">
        <ele>63.1</ele>
        <time>2012-02-25T09:03:06Z</time>
      </trkpt>
      <trkpt lat="44.25572" lon="0.52223">
        <ele>62.62</ele>
        <time>2012-02-25T09:03:07Z</time>
      </trkpt>
      <trkpt lat="44.25573" lon="0.52221">
        <ele>63.1</ele>
        <time>2012-02-25T09:03:08Z</time>
      </trkpt>
      <trkpt lat="44.25574" lon="0.52218">
        <ele>63.1</ele>
        <time>2012-02-25T09:03:09Z</time>
      </trkpt>
      <trkpt lat="44.25574" lon="0.52216">
        <ele>63.1</ele>
        <time>2012-02-25T09:03:10Z</time>
      </trkpt>
      <trkpt lat="44.25574" lon="0.52213">
        <ele>63.1</ele>
        <time>2012-02-25T09:03:11Z</time>
      </trkpt>
      <trkpt lat="44.25575" lon="0.52211">
        <ele>63.58</ele>
        <time>2012-02-25T09:03:12Z</time>
      </trkpt>
      <trkpt lat="44.25576" lon="0.52209">
        <ele>63.58</ele>
        <time>2012-02-25T09:03:13Z</time>
      </trkpt>
      <trkpt lat="44.25578" lon="0.52208">
        <ele>63.58</ele>
        <time>2012-02-25T09:03:14Z</time>
      </trkpt>
      <trkpt lat="44.25579" lon="0.52206">
        <ele>64.07</ele>
        <time>2012-02-25T09:03:15Z</time>
      </trkpt>
      <trkpt lat="44.2558" lon="0.52204">
        <ele>63.58</ele>
        <time>2012-02-25T09:03:16Z</time>
      </trkpt>
      <trkpt lat="44.25581" lon="0.52202">
        <ele>63.58</ele>
        <time>2012-02-25T09:03:17Z</time>
      </trkpt>
      <trkpt lat="44.25583" lon="0.52201">
        <ele>63.58</ele>
        <time>2012-02-25T09:03:18Z</time>
      </trkpt>
      <trkpt lat="44.25584" lon="0.52199">
        <ele>63.58</ele>
        <time>2012-02-25T09:03:19Z</time>
      </trkpt>
      <trkpt lat="44.25586" lon="0.52198">
        <ele>64.07</ele>
        <time>2012-02-25T09:03:20Z</time>
      </trkpt>
      <trkpt lat="44.25597" lon="0.52188">
        <ele>64.55</ele>
        <time>2012-02-25T09:03:28Z</time>
      </trkpt>
      <trkpt lat="44.25598" lon="0.52188">
        <ele>64.55</ele>
        <time>2012-02-25T09:03:29Z</time>
      </trkpt>
      <trkpt lat="44.25599" lon="0.52187">
        <ele>64.55</ele>
        <time>2012-02-25T09:03:30Z</time>
      </trkpt>
      <trkpt lat="44.25614" lon="0.52176">
        <ele>65.51</ele>
        <time>2012-02-25T09:03:42Z</time>
      </trkpt>
      <trkpt lat="44.25622" lon="0.5217">
        <ele>66.95</ele>
        <time>2012-02-25T09:03:53Z</time>
      </trkpt>
      <trkpt lat="44.25623" lon="0.52168">
        <ele>66.95</ele>
        <time>2012-02-25T09:04:05Z</time>
      </trkpt>
      <trkpt lat="44.25625" lon="0.52166">
        <ele>66.95</ele>
        <time>2012-02-25T09:04:19Z</time>
      </trkpt>
      <trkpt lat="44.25631" lon="0.52159">
        <ele>67.43</ele>
        <time>2012-02-25T09:04:26Z</time>
      </trkpt>
      <trkpt lat="44.25634" lon="0.52157">
        <ele>68.39</ele>
        <time>2012-02-25T09:04:29Z</time>
      </trkpt>
      <trkpt lat="44.25635" lon="0.52156">
        <ele>68.87</ele>
        <time>2012-02-25T09:04:31Z</time>
      </trkpt>
      <trkpt lat="44.25638" lon="0.52154">
        <ele>68.87</ele>
        <time>2012-02-25T09:04:33Z</time>
      </trkpt>
      <trkpt lat="44.2564" lon="0.52153">
        <ele>69.35</ele>
        <time>2012-02-25T09:04:35Z</time>
      </trkpt>
      <trkpt lat="44.25645" lon="0.5215">
        <ele>69.35</ele>
        <time>2012-02-25T09:04:39Z</time>
      </trkpt>
      <trkpt lat="44.25661" lon="0.52138">
        <ele>71.27</ele>
        <time>2012-02-25T09:04:53Z</time>
      </trkpt>
      <trkpt lat="44.25674" lon="0.52126">
        <ele>73.2</ele>
        <time>2012-02-25T09:05:06Z</time>
      </trkpt>
      <trkpt lat="44.2568" lon="0.52132">
        <ele>74.16</ele>
        <time>2012-02-25T09:05:12Z</time>
      </trkpt>
      <trkpt lat="44.25684" lon="0.52143">
        <ele>74.64</ele>
        <time>2012-02-25T09:05:20Z</time>
      </trkpt>
      <trkpt lat="44.25692" lon="0.52163">
        <ele>77.04</ele>
        <time>2012-02-25T09:05:34Z</time>
      </trkpt>
      <trkpt lat="44.25693" lon="0.52169">
        <ele>77.52</ele>
        <time>2012-02-25T09:05:38Z</time>
      </trkpt>
      <trkpt lat="44.257" lon="0.52178">
        <ele>78.48</ele>
        <time>2012-02-25T09:05:46Z</time>
      </trkpt>
      <trkpt lat="44.25703" lon="0.52183">
        <ele>78.97</ele>
        <time>2012-02-25T09:05:50Z</time>
      </trkpt>
      <trkpt lat="44.25713" lon="0.52203">
        <ele>79.93</ele>
        <time>2012-02-25T09:06:03Z</time>
      </trkpt>
      <trkpt lat="44.25725" lon="0.52227">
        <ele>80.89</ele>
        <time>2012-02-25T09:06:18Z</time>
      </trkpt>
      <trkpt lat="44.25737" lon="0.5225">
        <ele>81.85</ele>
        <time>2012-02-25T09:06:33Z</time>
      </trkpt>
      <trkpt lat="44.25746" lon="0.52272">
        <ele>83.77</ele>
        <time>2012-02-25T09:06:48Z</time>
      </trkpt>
      <trkpt lat="44.25754" lon="0.52291">
        <ele>87.14</ele>
        <time>2012-02-25T09:07:02Z</time>
      </trkpt>
      <trkpt lat="44.25768" lon="0.52308">
        <ele>89.06</ele>
        <time>2012-02-25T09:07:16Z</time>
      </trkpt>
      <trkpt lat="44.25777" lon="0.52312">
        <ele>89.54</ele>
        <time>2012-02-25T09:07:24Z</time>
      </trkpt>
      <trkpt lat="44.25794" lon="0.52315">
        <ele>92.42</ele>
        <time>2012-02-25T09:07:39Z</time>
      </trkpt>
      <trkpt lat="44.25795" lon="0.52315">
        <ele>92.42</ele>
        <time>2012-02-25T09:07:40Z</time>
      </trkpt>
      <trkpt lat="44.25812" lon="0.52315">
        <ele>94.35</ele>
        <time>2012-02-25T09:07:54Z</time>
      </trkpt>
      <trkpt lat="44.25824" lon="0.52318">
        <ele>95.79</ele>
        <time>2012-02-25T09:08:04Z</time>
      </trkpt>
      <trkpt lat="44.25834" lon="0.52324">
        <ele>96.75</ele>
        <time>2012-02-25T09:08:13Z</time>
      </trkpt>
      <trkpt lat="44.25848" lon="0.52342">
        <ele>98.67</ele>
        <time>2012-02-25T09:08:30Z</time>
      </trkpt>
      <trkpt lat="44.25856" lon="0.52352">
        <ele>100.11</ele>
        <time>2012-02-25T09:08:39Z</time>
      </trkpt>
      <trkpt lat="44.25866" lon="0.5237">
        <ele>101.56</ele>
        <time>2012-02-25T09:08:53Z</time>
      </trkpt>
      <trkpt lat="44.25879" lon="0.52387">
        <ele>103</ele>
        <time>2012-02-25T09:09:06Z</time>
      </trkpt>
      <trkpt lat="44.25902" lon="0.52399">
        <ele>103.96</ele>
        <time>2012-02-25T09:09:21Z</time>
      </trkpt>
      <trkpt lat="44.25925" lon="0.52407">
        <ele>103.96</ele>
        <time>2012-02-25T09:09:35Z</time>
      </trkpt>
      <trkpt lat="44.25947" lon="0.52414">
        <ele>104.44</ele>
        <time>2012-02-25T09:09:48Z</time>
      </trkpt>
      <trkpt lat="44.25966" lon="0.52419">
        <ele>105.88</ele>
        <time>2012-02-25T09:10:00Z</time>
      </trkpt>
      <trkpt lat="44.25983" lon="0.52442">
        <ele>107.81</ele>
        <time>2012-02-25T09:10:14Z</time>
      </trkpt>
      <trkpt lat="44.25986" lon="0.52452">
        <ele>108.77</ele>
        <time>2012-02-25T09:10:19Z</time>
      </trkpt>
      <trkpt lat="44.25993" lon="0.52478">
        <ele>109.73</ele>
        <time>2012-02-25T09:10:31Z</time>
      </trkpt>
      <trkpt lat="44.25998" lon="0.52519">
        <ele>111.17</ele>
        <time>2012-02-25T09:10:47Z</time>
      </trkpt>
      <trkpt lat="44.26008" lon="0.52553">
        <ele>113.09</ele>
        <time>2012-02-25T09:11:02Z</time>
      </trkpt>
      <trkpt lat="44.26012" lon="0.52559">
        <ele>113.09</ele>
        <time>2012-02-25T09:11:05Z</time>
      </trkpt>
      <trkpt lat="44.2602" lon="0.52564">
        <ele>113.57</ele>
        <time>2012-02-25T09:11:11Z</time>
      </trkpt>
      <trkpt lat="44.26023" lon="0.52565">
        <ele>114.53</ele>
        <time>2012-02-25T09:11:13Z</time>
      </trkpt>
      <trkpt lat="44.2603" lon="0.52561">
        <ele>115.5</ele>
        <time>2012-02-25T09:11:20Z</time>
      </trkpt>
      <trkpt lat="44.26035" lon="0.52558">
        <ele>115.98</ele>
        <time>2012-02-25T09:11:24Z</time>
      </trkpt>
      <trkpt lat="44.26045" lon="0.52543">
        <ele>119.82</ele>
        <time>2012-02-25T09:11:39Z</time>
      </trkpt>
      <trkpt lat="44.26047" lon="0.52538">
        <ele>120.78</ele>
        <time>2012-02-25T09:11:45Z</time>
      </trkpt>
      <trkpt lat="44.26043" lon="0.52528">
        <ele>122.71</ele>
        <time>2012-02-25T09:11:57Z</time>
      </trkpt>
      <trkpt lat="44.26042" lon="0.52523">
        <ele>123.67</ele>
        <time>2012-02-25T09:12:09Z</time>
      </trkpt>
      <trkpt lat="44.26042" lon="0.52521">
        <ele>123.67</ele>
        <time>2012-02-25T09:12:13Z</time>
      </trkpt>
      <trkpt lat="44.26043" lon="0.52508">
        <ele>124.15</ele>
        <time>2012-02-25T09:12:19Z</time>
      </trkpt>
      <trkpt lat="44.26051" lon="0.52481">
        <ele>126.07</ele>
        <time>2012-02-25T09:12:34Z</time>
      </trkpt>
      <trkpt lat="44.26053" lon="0.52475">
        <ele>126.55</ele>
        <time>2012-02-25T09:12:38Z</time>
      </trkpt>
      <trkpt lat="44.26055" lon="0.52473">
        <ele>127.51</ele>
        <time>2012-02-25T09:12:40Z</time>
      </trkpt>
      <trkpt lat="44.26064" lon="0.52466">
        <ele>130.4</ele>
        <time>2012-02-25T09:12:52Z</time>
      </trkpt>
      <trkpt lat="44.26067" lon="0.52463">
        <ele>130.4</ele>
        <time>2012-02-25T09:12:55Z</time>
      </trkpt>
      <trkpt lat="44.2608" lon="0.52453">
        <ele>131.84</ele>
        <time>2012-02-25T09:13:06Z</time>
      </trkpt>
      <trkpt lat="44.26084" lon="0.5245">
        <ele>132.32</ele>
        <time>2012-02-25T09:13:09Z</time>
      </trkpt>
      <trkpt lat="44.26087" lon="0.52441">
        <ele>132.8</ele>
        <time>2012-02-25T09:13:21Z</time>
      </trkpt>
      <trkpt lat="44.26086" lon="0.52439">
        <ele>132.8</ele>
        <time>2012-02-25T09:13:38Z</time>
      </trkpt>
      <trkpt lat="44.26086" lon="0.52438">
        <ele>132.8</ele>
        <time>2012-02-25T09:14:20Z</time>
      </trkpt>
      <trkpt lat="44.26086" lon="0.52438">
        <ele>133.28</ele>
        <time>2012-02-25T09:14:38Z</time>
      </trkpt>
      <trkpt lat="44.26083" lon="0.52417">
        <ele>135.68</ele>
        <time>2012-02-25T09:14:51Z</time>
      </trkpt>
      <trkpt lat="44.26083" lon="0.52414">
        <ele>135.68</ele>
        <time>2012-02-25T09:14:53Z</time>
      </trkpt>
      <trkpt lat="44.26079" lon="0.52394">
        <ele>136.64</ele>
        <time>2012-02-25T09:15:03Z</time>
      </trkpt>
      <trkpt lat="44.26079" lon="0.52378">
        <ele>137.13</ele>
        <time>2012-02-25T09:15:11Z</time>
      </trkpt>
      <trkpt lat="44.26081" lon="0.52368">
        <ele>137.61</ele>
        <time>2012-02-25T09:15:16Z</time>
      </trkpt>
      <trkpt lat="44.26085" lon="0.52348">
        <ele>139.05</ele>
        <time>2012-02-25T09:15:27Z</time>
      </trkpt>
      <trkpt lat="44.26091" lon="0.52318">
        <ele>141.45</ele>
        <time>2012-02-25T09:15:44Z</time>
      </trkpt>
      <trkpt lat="44.26097" lon="0.52288">
        <ele>143.85</ele>
        <time>2012-02-25T09:16:02Z</time>
      </trkpt>
      <trkpt lat="44.26102" lon="0.52266">
        <ele>146.74</ele>
        <time>2012-02-25T09:16:16Z</time>
      </trkpt>
      <trkpt lat="44.26103" lon="0.5226">
        <ele>147.7</ele>
        <time>2012-02-25T09:16:20Z</time>
      </trkpt>
      <trkpt lat="44.26107" lon="0.52242">
        <ele>149.62</ele>
        <time>2012-02-25T09:16:32Z</time>
      </trkpt>
      <trkpt lat="44.26108" lon="0.52236">
        <ele>150.58</ele>
        <time>2012-02-25T09:16:36Z</time>
      </trkpt>
      <trkpt lat="44.2611" lon="0.5223">
        <ele>150.58</ele>
        <time>2012-02-25T09:16:40Z</time>
      </trkpt>
      <trkpt lat="44.26113" lon="0.52216">
        <ele>152.51</ele>
        <time>2012-02-25T09:16:49Z</time>
      </trkpt>
      <trkpt lat="44.26119" lon="0.52184">
        <ele>154.43</ele>
        <time>2012-02-25T09:17:05Z</time>
      </trkpt>
      <trkpt lat="44.26121" lon="0.52173">
        <ele>155.39</ele>
        <time>2012-02-25T09:17:11Z</time>
      </trkpt>
      <trkpt lat="44.26135" lon="0.52151">
        <ele>156.83</ele>
        <time>2012-02-25T09:17:23Z</time>
      </trkpt>
      <trkpt lat="44.26155" lon="0.52125">
        <ele>160.2</ele>
        <time>2012-02-25T09:17:44Z</time>
      </trkpt>
      <trkpt lat="44.26163" lon="0.5212">
        <ele>161.64</ele>
        <time>2012-02-25T09:17:52Z</time>
      </trkpt>
      <trkpt lat="44.26179" lon="0.52103">
        <ele>164.52</ele>
        <time>2012-02-25T09:18:09Z</time>
      </trkpt>
      <trkpt lat="44.26185" lon="0.52069">
        <ele>166.93</ele>
        <time>2012-02-25T09:18:28Z</time>
      </trkpt>
      <trkpt lat="44.26186" lon="0.52055">
        <ele>167.89</ele>
        <time>2012-02-25T09:18:35Z</time>
      </trkpt>
      <trkpt lat="44.26192" lon="0.5204">
        <ele>168.37</ele>
        <time>2012-02-25T09:18:45Z</time>
      </trkpt>
      <trkpt lat="44.26222" lon="0.52041">
        <ele>167.41</ele>
        <time>2012-02-25T09:19:00Z</time>
      </trkpt>
      <trkpt lat="44.26259" lon="0.52035">
        <ele>164.04</ele>
        <time>2012-02-25T09:19:13Z</time>
      </trkpt>
      <trkpt lat="44.26292" lon="0.52022">
        <ele>162.6</ele>
        <time>2012-02-25T09:19:22Z</time>
      </trkpt>
      <trkpt lat="44.26334" lon="0.51995">
        <ele>162.12</ele>
        <time>2012-02-25T09:19:36Z</time>
      </trkpt>
      <trkpt lat="44.26365" lon="0.5198">
        <ele>162.12</ele>
        <time>2012-02-25T09:19:47Z</time>
      </trkpt>
      <trkpt lat="44.26387" lon="0.51979">
        <ele>161.16</ele>
        <time>2012-02-25T09:19:54Z</time>
      </trkpt>
      <trkpt lat="44.26392" lon="0.51979">
        <ele>160.68</ele>
        <time>2012-02-25T09:19:55Z</time>
      </trkpt>
      <trkpt lat="44.26396" lon="0.51979">
        <ele>160.68</ele>
        <time>2012-02-25T09:19:56Z</time>
      </trkpt>
      <trkpt lat="44.264" lon="0.51979">
        <ele>160.2</ele>
        <time>2012-02-25T09:19:57Z</time>
      </trkpt>
      <trkpt lat="44.26404" lon="0.51979">
        <ele>160.2</ele>
        <time>2012-02-25T09:19:58Z</time>
      </trkpt>
      <trkpt lat="44.26441" lon="0.51978">
        <ele>160.68</ele>
        <time>2012-02-25T09:20:10Z</time>
      </trkpt>
      <trkpt lat="44.26473" lon="0.5198">
        <ele>162.12</ele>
        <time>2012-02-25T09:20:22Z</time>
      </trkpt>
      <trkpt lat="44.26507" lon="0.51986">
        <ele>162.6</ele>
        <time>2012-02-25T09:20:35Z</time>
      </trkpt>
      <trkpt lat="44.26543" lon="0.51997">
        <ele>161.16</ele>
        <time>2012-02-25T09:20:48Z</time>
      </trkpt>
      <trkpt lat="44.26586" lon="0.51984">
        <ele>160.2</ele>
        <time>2012-02-25T09:21:01Z</time>
      </trkpt>
      <trkpt lat="44.26623" lon="0.51975">
        <ele>160.2</ele>
        <time>2012-02-25T09:21:14Z</time>
      </trkpt>
      <trkpt lat="44.26655" lon="0.51968">
        <ele>162.12</ele>
        <time>2012-02-25T09:21:26Z</time>
      </trkpt>
      <trkpt lat="44.2666" lon="0.51967">
        <ele>162.12</ele>
        <time>2012-02-25T09:21:28Z</time>
      </trkpt>
      <trkpt lat="44.26662" lon="0.51967">
        <ele>162.12</ele>
        <time>2012-02-25T09:21:29Z</time>
      </trkpt>
      <trkpt lat="44.26664" lon="0.51966">
        <ele>162.12</ele>
        <time>2012-02-25T09:21:30Z</time>
      </trkpt>
      <trkpt lat="44.26672" lon="0.51963">
        <ele>162.12</ele>
        <time>2012-02-25T09:21:33Z</time>
      </trkpt>
      <trkpt lat="44.26674" lon="0.51964">
        <ele>162.12</ele>
        <time>2012-02-25T09:21:34Z</time>
      </trkpt>
      <trkpt lat="44.26675" lon="0.51967">
        <ele>162.12</ele>
        <time>2012-02-25T09:21:35Z</time>
      </trkpt>
      <trkpt lat="44.26678" lon="0.51971">
        <ele>162.12</ele>
        <time>2012-02-25T09:21:37Z</time>
      </trkpt>
      <trkpt lat="44.26679" lon="0.51972">
        <ele>162.12</ele>
        <time>2012-02-25T09:21:38Z</time>
      </trkpt>
      <trkpt lat="44.26681" lon="0.51974">
        <ele>162.12</ele>
        <time>2012-02-25T09:21:39Z</time>
      </trkpt>
      <trkpt lat="44.26682" lon="0.51977">
        <ele>161.64</ele>
        <time>2012-02-25T09:21:40Z</time>
      </trkpt>
      <trkpt lat="44.26684" lon="0.5198">
        <ele>161.64</ele>
        <time>2012-02-25T09:21:41Z</time>
      </trkpt>
      <trkpt lat="44.26686" lon="0.51984">
        <ele>161.64</ele>
        <time>2012-02-25T09:21:42Z</time>
      </trkpt>
      <trkpt lat="44.26688" lon="0.51988">
        <ele>161.64</ele>
        <time>2012-02-25T09:21:43Z</time>
      </trkpt>
      <trkpt lat="44.26697" lon="0.52007">
        <ele>161.16</ele>
        <time>2012-02-25T09:21:47Z</time>
      </trkpt>
      <trkpt lat="44.26744" lon="0.52085">
        <ele>160.2</ele>
        <time>2012-02-25T09:22:00Z</time>
      </trkpt>
      <trkpt lat="44.26788" lon="0.52169">
        <ele>160.2</ele>
        <time>2012-02-25T09:22:14Z</time>
      </trkpt>
      <trkpt lat="44.26803" lon="0.52197">
        <ele>159.72</ele>
        <time>2012-02-25T09:22:19Z</time>
      </trkpt>
      <trkpt lat="44.26851" lon="0.52274">
        <ele>158.75</ele>
        <time>2012-02-25T09:22:34Z</time>
      </trkpt>
      <trkpt lat="44.26861" lon="0.52289">
        <ele>158.75</ele>
        <time>2012-02-25T09:22:37Z</time>
      </trkpt>
      <trkpt lat="44.26875" lon="0.52305">
        <ele>159.24</ele>
        <time>2012-02-25T09:22:41Z</time>
      </trkpt>
      <trkpt lat="44.26927" lon="0.52367">
        <ele>158.75</ele>
        <time>2012-02-25T09:22:56Z</time>
      </trkpt>
      <trkpt lat="44.26929" lon="0.52372">
        <ele>159.24</ele>
        <time>2012-02-25T09:22:57Z</time>
      </trkpt>
      <trkpt lat="44.26945" lon="0.52401">
        <ele>158.75</ele>
        <time>2012-02-25T09:23:03Z</time>
      </trkpt>
      <trkpt lat="44.26976" lon="0.52469">
        <ele>159.24</ele>
        <time>2012-02-25T09:23:17Z</time>
      </trkpt>
      <trkpt lat="44.27008" lon="0.52545">
        <ele>160.68</ele>
        <time>2012-02-25T09:23:34Z</time>
      </trkpt>
      <trkpt lat="44.27035" lon="0.52569">
        <ele>162.6</ele>
        <time>2012-02-25T09:23:46Z</time>
      </trkpt>
      <trkpt lat="44.2704" lon="0.52574">
        <ele>163.08</ele>
        <time>2012-02-25T09:23:52Z</time>
      </trkpt>
      <trkpt lat="44.27041" lon="0.52574">
        <ele>163.08</ele>
        <time>2012-02-25T09:23:53Z</time>
      </trkpt>
      <trkpt lat="44.27042" lon="0.52573">
        <ele>163.08</ele>
        <time>2012-02-25T09:23:54Z</time>
      </trkpt>
      <trkpt lat="44.27043" lon="0.52572">
        <ele>163.08</ele>
        <time>2012-02-25T09:23:55Z</time>
      </trkpt>
      <trkpt lat="44.27044" lon="0.5257">
        <ele>163.08</ele>
        <time>2012-02-25T09:23:56Z</time>
      </trkpt>
      <trkpt lat="44.27045" lon="0.52567">
        <ele>163.08</ele>
        <time>2012-02-25T09:23:57Z</time>
      </trkpt>
      <trkpt lat="44.27046" lon="0.52564">
        <ele>163.56</ele>
        <time>2012-02-25T09:23:58Z</time>
      </trkpt>
      <trkpt lat="44.27047" lon="0.52562">
        <ele>163.56</ele>
        <time>2012-02-25T09:23:59Z</time>
      </trkpt>
      <trkpt lat="44.27066" lon="0.52523">
        <ele>166.45</ele>
        <time>2012-02-25T09:24:14Z</time>
      </trkpt>
      <trkpt lat="44.27077" lon="0.52508">
        <ele>167.41</ele>
        <time>2012-02-25T09:24:22Z</time>
      </trkpt>
      <trkpt lat="44.27081" lon="0.52507">
        <ele>167.89</ele>
        <time>2012-02-25T09:24:26Z</time>
      </trkpt>
      <trkpt lat="44.27082" lon="0.52509">
        <ele>167.89</ele>
        <time>2012-02-25T09:24:27Z</time>
      </trkpt>
      <trkpt lat="44.27083" lon="0.5251">
        <ele>167.89</ele>
        <time>2012-02-25T09:24:28Z</time>
      </trkpt>
      <trkpt lat="44.27087" lon="0.52514">
        <ele>167.89</ele>
        <time>2012-02-25T09:24:31Z</time>
      </trkpt>
      <trkpt lat="44.27089" lon="0.52514">
        <ele>167.89</ele>
        <time>2012-02-25T09:24:32Z</time>
      </trkpt>
      <trkpt lat="44.2709" lon="0.52512">
        <ele>167.89</ele>
        <time>2012-02-25T09:24:33Z</time>
      </trkpt>
      <trkpt lat="44.27091" lon="0.5251">
        <ele>168.37</ele>
        <time>2012-02-25T09:24:34Z</time>
      </trkpt>
      <trkpt lat="44.27092" lon="0.52509">
        <ele>168.37</ele>
        <time>2012-02-25T09:24:35Z</time>
      </trkpt>
      <trkpt lat="44.27094" lon="0.52506">
        <ele>167.89</ele>
        <time>2012-02-25T09:24:37Z</time>
      </trkpt>
      <trkpt lat="44.27096" lon="0.52507">
        <ele>168.37</ele>
        <time>2012-02-25T09:24:39Z</time>
      </trkpt>
      <trkpt lat="44.27098" lon="0.52511">
        <ele>168.85</ele>
        <time>2012-02-25T09:24:51Z</time>
      </trkpt>
      <trkpt lat="44.27097" lon="0.52511">
        <ele>168.37</ele>
        <time>2012-02-25T09:25:04Z</time>
      </trkpt>
      <trkpt lat="44.27098" lon="0.52512">
        <ele>168.37</ele>
        <time>2012-02-25T09:25:17Z</time>
      </trkpt>
      <trkpt lat="44.27098" lon="0.52509">
        <ele>168.37</ele>
        <time>2012-02-25T09:25:49Z</time>
      </trkpt>
      <trkpt lat="44.27098" lon="0.5251">
        <ele>170.77</ele>
        <time>2012-02-25T09:26:13Z</time>
      </trkpt>
      <trkpt lat="44.27098" lon="0.5251">
        <ele>166.93</ele>
        <time>2012-02-25T09:26:14Z</time>
      </trkpt>
    </trkseg>
  </trk>
</gpx>